createdAt,value
2022-10-09T00:01:13.289Z,72.16
2022-10-09T00:03:42.408Z,72.17
2022-10-09T00:06:11.561Z,72.14
2022-10-09T00:08:39.549Z,71.06
2022-10-09T00:11:07.894Z,71.62
2022-10-09T00:13:34.615Z,71.87
2022-10-09T00:16:09.407Z,71.39
2022-10-09T00:18:36.905Z,71.71
2022-10-09T00:21:04.477Z,71.72
2022-10-09T00:23:31.072Z,71.49
2022-10-09T00:26:00.486Z,71.97
2022-10-09T00:28:29.959Z,71.91
2022-10-09T00:30:56.955Z,72.06
2022-10-09T00:33:23.522Z,71.28
2022-10-09T00:35:50.460Z,69.96
2022-10-09T00:38:17.198Z,70.42
2022-10-09T00:40:44.028Z,70.85
2022-10-09T00:43:19.429Z,71.18
2022-10-09T00:45:54.125Z,71.02
2022-10-09T00:48:21.764Z,71.18
2022-10-09T00:50:56.406Z,71.20
2022-10-09T00:53:26.136Z,71.26
2022-10-09T00:55:53.322Z,71.41
2022-10-09T00:58:21.180Z,71.32
2022-10-09T01:00:48.480Z,71.17
2022-10-09T01:03:15.533Z,71.47
2022-10-09T01:05:59.870Z,71.06
2022-10-09T01:09:04.573Z,71.10
2022-10-09T01:11:48.522Z,71.04
2022-10-09T01:14:41.009Z,70.94
2022-10-09T01:17:13.205Z,70.43
2022-10-09T01:20:03.811Z,70.60
2022-10-09T01:22:44.966Z,70.98
2022-10-09T01:25:17.387Z,71.29
2022-10-09T01:27:44.102Z,70.91
2022-10-09T01:30:12.588Z,70.89
2022-10-09T01:32:51.964Z,71.54
2022-10-09T01:35:20.504Z,71.49
2022-10-09T01:37:47.680Z,71.05
2022-10-09T01:40:17.167Z,71.09
2022-10-09T01:42:46.935Z,71.41
2022-10-09T01:49:47.231Z,72.03
2022-10-09T01:52:25.979Z,71.74
2022-10-09T01:55:17.285Z,72.00
2022-10-09T01:58:00.213Z,72.57
2022-10-09T02:00:28.818Z,72.54
2022-10-09T02:02:57.403Z,72.04
2022-10-09T02:05:28.428Z,72.17
2022-10-09T02:07:56.509Z,73.81
2022-10-09T02:10:23.789Z,73.62
2022-10-09T02:12:54.958Z,74.21
2022-10-09T02:15:25.030Z,74.90
2022-10-09T02:17:56.235Z,74.36
2022-10-09T02:20:31.148Z,73.49
2022-10-09T02:23:01.657Z,73.56
2022-10-09T02:25:29.074Z,72.49
2022-10-09T02:27:56.446Z,72.65
2022-10-09T02:30:26.804Z,73.40
2022-10-09T02:32:54.366Z,74.82
2022-10-09T02:35:21.390Z,74.52
2022-10-09T02:37:49.087Z,73.68
2022-10-09T02:40:15.909Z,73.60
2022-10-09T02:42:42.325Z,73.44
2022-10-09T02:45:09.482Z,73.31
2022-10-09T02:47:35.963Z,73.82
2022-10-09T02:50:02.364Z,74.60
2022-10-09T02:52:28.762Z,74.39
2022-10-09T02:54:55.178Z,74.33
2022-10-09T02:57:21.571Z,73.60
2022-10-09T02:59:47.975Z,74.15
2022-10-09T03:02:14.467Z,74.09
2022-10-09T03:04:40.947Z,74.66
2022-10-09T03:07:07.349Z,74.44
2022-10-09T03:09:34.050Z,74.24
2022-10-09T03:12:00.492Z,74.30
2022-10-09T03:14:26.917Z,74.78
2022-10-09T03:16:53.333Z,74.31
2022-10-09T03:19:19.719Z,74.55
2022-10-09T03:21:46.190Z,74.49
2022-10-09T03:24:12.571Z,74.32
2022-10-09T03:26:39.004Z,74.60
2022-10-09T03:29:05.428Z,73.84
2022-10-09T03:31:52.200Z,73.69
2022-10-09T03:34:18.203Z,74.28
2022-10-09T03:36:44.663Z,74.17
2022-10-09T03:39:11.123Z,73.93
2022-10-09T03:41:37.538Z,73.98
2022-10-09T03:44:04.073Z,74.80
2022-10-09T03:46:30.580Z,75.21
2022-10-09T03:48:57.136Z,74.67
2022-10-09T03:51:23.584Z,74.62
2022-10-09T03:53:50.033Z,74.65
2022-10-09T03:56:16.520Z,74.30
2022-10-09T03:58:43.153Z,74.74
2022-10-09T04:01:09.771Z,73.98
2022-10-09T04:03:36.187Z,74.08
2022-10-09T04:06:02.694Z,73.64
2022-10-09T04:08:29.113Z,73.68
2022-10-09T04:11:00.030Z,73.67
2022-10-09T04:13:26.489Z,73.34
2022-10-09T04:15:54.135Z,73.42
2022-10-09T04:18:20.776Z,72.92
2022-10-09T04:20:52.073Z,73.13
2022-10-09T04:23:19.702Z,73.32
2022-10-09T04:25:46.520Z,73.03
2022-10-09T04:28:13.035Z,73.07
2022-10-09T04:30:39.587Z,73.33
2022-10-09T04:33:11.845Z,73.23
2022-10-09T04:35:46.276Z,73.48
2022-10-09T04:38:12.685Z,73.32
2022-10-09T04:40:39.097Z,73.12
2022-10-09T04:43:05.558Z,72.83
2022-10-09T04:45:32.460Z,72.49
2022-10-09T04:47:59.048Z,72.90
2022-10-09T04:50:25.585Z,73.85
2022-10-09T04:52:58.214Z,73.64
2022-10-09T04:55:24.647Z,74.25
2022-10-09T04:57:51.062Z,74.81
2022-10-09T05:00:17.495Z,74.53
2022-10-09T05:02:43.919Z,74.51
2022-10-09T05:05:10.339Z,74.28
2022-10-09T05:07:36.811Z,73.80
2022-10-09T05:10:03.505Z,74.51
2022-10-09T05:12:29.898Z,74.42
2022-10-09T05:14:56.311Z,73.69
2022-10-09T05:17:23.663Z,73.75
2022-10-09T05:19:50.311Z,74.69
2022-10-09T05:22:16.725Z,74.87
2022-10-09T05:24:43.134Z,74.92
2022-10-09T05:27:09.557Z,75.09
2022-10-09T05:29:35.963Z,75.03
2022-10-09T05:32:02.486Z,75.16
2022-10-09T05:34:28.952Z,75.47
2022-10-09T05:36:55.337Z,75.94
2022-10-09T05:39:21.880Z,76.35
2022-10-09T05:41:48.316Z,76.79
2022-10-09T05:44:14.745Z,77.50
2022-10-09T05:46:41.145Z,77.74
2022-10-09T05:49:07.625Z,78.32
2022-10-09T05:51:36.642Z,78.71
2022-10-09T05:54:04.206Z,78.52
2022-10-09T05:56:36.143Z,78.73
2022-10-09T05:59:05.550Z,78.47
2022-10-09T06:01:35.131Z,78.24
2022-10-09T06:04:02.226Z,77.46
2022-10-09T06:06:31.187Z,77.22
2022-10-09T06:08:59.494Z,77.04
2022-10-09T06:11:29.147Z,77.53
2022-10-09T06:13:56.279Z,77.90
2022-10-09T06:16:25.695Z,78.12
2022-10-09T06:18:53.930Z,78.31
2022-10-09T06:21:21.112Z,78.53
2022-10-09T06:23:58.307Z,78.17
2022-10-09T06:26:26.367Z,77.67
2022-10-09T06:28:52.877Z,77.23
2022-10-09T06:31:24.578Z,77.46
2022-10-09T06:33:52.436Z,77.00
2022-10-09T06:36:25.048Z,77.11
2022-10-09T06:38:52.679Z,77.28
2022-10-09T06:41:21.547Z,77.25
2022-10-09T06:43:50.629Z,77.06
2022-10-09T06:46:17.849Z,76.99
2022-10-09T06:48:44.286Z,77.63
2022-10-09T06:51:13.908Z,77.79
2022-10-09T06:53:45.927Z,77.93
2022-10-09T06:56:12.660Z,77.46
2022-10-09T06:58:40.285Z,77.42
2022-10-09T07:01:13.972Z,77.24
2022-10-09T07:03:42.630Z,77.74
2022-10-09T07:06:13.759Z,77.49
2022-10-09T07:08:43.287Z,77.95
2022-10-09T07:11:13.902Z,77.90
2022-10-09T07:13:41.728Z,77.83
2022-10-09T07:16:09.349Z,77.93
2022-10-09T07:18:36.962Z,78.24
2022-10-09T07:21:06.359Z,78.33
2022-10-09T07:23:34.106Z,78.49
2022-10-09T07:26:01.283Z,78.68
2022-10-09T07:28:29.802Z,78.65
2022-10-09T07:30:56.628Z,79.26
2022-10-09T07:33:23.129Z,79.27
2022-10-09T07:35:54.382Z,79.29
2022-10-09T07:38:20.934Z,79.41
2022-10-09T07:40:47.331Z,79.18
2022-10-09T07:43:13.797Z,79.31
2022-10-09T07:45:40.208Z,79.82
2022-10-09T07:48:06.602Z,80.06
2022-10-09T07:50:33.199Z,80.62
2022-10-09T07:52:59.590Z,80.55
2022-10-09T07:55:26.512Z,80.36
2022-10-09T07:57:52.931Z,80.28
2022-10-09T08:00:19.411Z,80.26
2022-10-09T08:02:46.031Z,80.58
2022-10-09T08:05:12.623Z,80.73
2022-10-09T08:07:39.063Z,80.30
2022-10-09T08:10:06.084Z,80.63
2022-10-09T08:12:32.492Z,80.50
2022-10-09T08:14:58.908Z,80.79
2022-10-09T08:17:25.834Z,80.48
2022-10-09T08:19:52.237Z,80.28
2022-10-09T08:22:18.661Z,79.97
2022-10-09T08:24:45.079Z,80.28
2022-10-09T08:27:11.506Z,79.92
2022-10-09T08:29:40.248Z,79.88
2022-10-09T08:32:06.941Z,79.74
2022-10-09T08:34:33.350Z,79.10
2022-10-09T08:36:59.759Z,78.75
2022-10-09T08:39:30.734Z,78.47
2022-10-09T08:42:01.475Z,78.12
2022-10-09T08:44:32.275Z,77.98
2022-10-09T08:47:05.112Z,77.27
2022-10-09T08:49:39.091Z,77.68
2022-10-09T08:52:32.189Z,77.66
2022-10-09T08:55:06.387Z,77.26
2022-10-09T08:57:34.388Z,77.03
2022-10-09T09:00:00.804Z,77.30
2022-10-09T09:02:35.596Z,76.82
2022-10-09T09:05:43.487Z,76.49
2022-10-09T09:08:16.969Z,75.93
2022-10-09T09:10:51.611Z,75.66
2022-10-09T09:13:23.950Z,75.78
2022-10-09T09:15:58.301Z,75.53
2022-10-09T09:18:42.504Z,75.41
2022-10-09T09:21:40.158Z,74.75
2022-10-09T09:24:14.273Z,75.03
2022-10-09T09:26:45.330Z,74.80
2022-10-09T09:29:15.781Z,74.58
2022-10-09T09:31:43.224Z,73.97
2022-10-09T09:34:42.383Z,73.85
2022-10-09T09:37:12.150Z,72.43
2022-10-09T09:42:27.454Z,71.46
2022-10-09T09:45:04.819Z,71.94
2022-10-09T09:47:54.400Z,72.07
2022-10-09T09:50:48.428Z,71.12
2022-10-09T09:53:22.159Z,71.39
2022-10-09T09:55:53.015Z,70.22
2022-10-09T09:58:21.682Z,70.47
2022-10-09T10:01:03.577Z,69.63
2022-10-09T10:03:31.229Z,69.88
2022-10-09T10:05:57.975Z,69.71
2022-10-09T10:08:27.457Z,69.41
2022-10-09T10:10:57.471Z,69.30
2022-10-09T10:13:33.930Z,68.30
2022-10-09T10:16:01.715Z,68.56
2022-10-09T10:18:32.563Z,68.29
2022-10-09T10:21:09.094Z,68.62
2022-10-09T10:23:39.391Z,68.37
2022-10-09T10:26:29.872Z,67.92
2022-10-09T10:29:06.223Z,67.46
2022-10-09T10:31:45.967Z,66.57
2022-10-09T10:34:39.371Z,66.96
2022-10-09T10:37:14.893Z,65.32
2022-10-09T10:39:47.434Z,66.50
2022-10-09T10:42:27.617Z,65.67
2022-10-09T10:45:03.885Z,65.75
2022-10-09T10:47:34.492Z,65.67
2022-10-09T10:50:01.494Z,65.43
2022-10-09T10:52:49.459Z,65.31
2022-10-09T10:55:43.801Z,64.21
2022-10-09T10:58:17.350Z,63.77
2022-10-09T11:00:53.348Z,63.74
2022-10-09T11:03:37.176Z,62.56
2022-10-09T11:06:23.448Z,63.15
2022-10-09T11:08:56.020Z,62.74
2022-10-09T11:11:39.974Z,62.50
2022-10-09T11:14:32.045Z,62.32
2022-10-09T11:17:15.149Z,61.75
2022-10-09T11:20:32.829Z,61.67
2022-10-09T11:22:59.151Z,62.05
2022-10-09T11:25:35.423Z,60.58
2022-10-09T11:28:14.210Z,60.68
2022-10-09T11:31:15.262Z,60.70
2022-10-09T11:33:45.693Z,60.49
2022-10-09T11:36:34.152Z,60.20
2022-10-09T11:39:05.252Z,60.37
2022-10-09T11:41:35.295Z,59.86
2022-10-09T11:44:25.766Z,59.68
2022-10-09T11:47:20.517Z,59.10
2022-10-09T11:50:03.539Z,59.32
2022-10-09T11:52:44.231Z,58.64
2022-10-09T11:55:31.790Z,58.30
2022-10-09T11:58:23.047Z,57.78
2022-10-09T12:00:53.844Z,57.03
2022-10-09T12:03:29.989Z,56.61
2022-10-09T12:06:03.480Z,55.67
2022-10-09T12:08:30.014Z,56.10
2022-10-09T12:11:18.385Z,56.23
2022-10-09T12:13:49.552Z,56.70
2022-10-09T12:16:48.531Z,55.96
2022-10-09T12:19:23.420Z,54.59
2022-10-09T12:22:14.340Z,54.69
2022-10-09T12:25:06.647Z,55.08
2022-10-09T12:27:40.300Z,55.48
2022-10-09T12:30:13.459Z,54.38
2022-10-09T12:33:12.567Z,54.07
2022-10-09T12:35:41.881Z,54.71
2022-10-09T12:38:22.870Z,53.27
2022-10-09T12:40:49.344Z,54.18
2022-10-09T12:43:20.182Z,54.22
2022-10-09T12:45:49.142Z,54.42
2022-10-09T12:48:22.089Z,54.93
2022-10-09T12:50:49.683Z,54.00
2022-10-09T12:53:19.287Z,54.88
2022-10-09T12:55:49.102Z,54.94
2022-10-09T12:58:19.969Z,53.49
2022-10-09T13:00:59.165Z,51.77
2022-10-09T13:03:32.808Z,51.28
2022-10-09T13:06:01.231Z,50.42
2022-10-09T13:08:38.865Z,53.38
2022-10-09T13:11:23.934Z,51.07
2022-10-09T13:13:55.045Z,51.25
2022-10-09T13:16:22.947Z,51.39
2022-10-09T13:18:56.737Z,50.82
2022-10-09T13:21:35.309Z,50.09
2022-10-09T13:24:09.453Z,50.40
2022-10-09T13:26:37.974Z,49.77
2022-10-09T13:29:06.680Z,50.07
2022-10-09T13:31:33.795Z,49.73
2022-10-09T13:34:09.683Z,49.81
2022-10-09T13:36:35.974Z,49.77
2022-10-09T13:39:02.681Z,49.19
2022-10-09T13:41:29.212Z,48.10
2022-10-09T13:43:55.657Z,48.91
2022-10-09T13:46:22.070Z,48.46
2022-10-09T13:48:48.541Z,48.66
2022-10-09T13:51:15.057Z,48.58
2022-10-09T13:53:41.455Z,47.81
2022-10-09T13:56:09.462Z,47.72
2022-10-09T13:58:36.704Z,48.22
2022-10-09T14:01:03.267Z,48.11
2022-10-09T14:03:29.722Z,46.89
2022-10-09T14:06:00.813Z,47.05
2022-10-09T14:08:27.484Z,46.74
2022-10-09T14:10:54.391Z,47.59
2022-10-09T14:13:21.732Z,47.78
2022-10-09T14:15:48.369Z,47.58
2022-10-09T14:18:14.819Z,47.86
2022-10-09T14:20:41.287Z,47.81
2022-10-09T14:23:07.705Z,46.92
2022-10-09T14:25:34.678Z,46.05
2022-10-09T14:28:01.042Z,46.80
2022-10-09T14:30:27.732Z,46.03
2022-10-09T14:32:55.248Z,46.09
2022-10-09T14:35:21.890Z,45.61
2022-10-09T14:37:48.349Z,45.30
2022-10-09T14:40:15.110Z,45.33
2022-10-09T14:42:42.054Z,45.51
2022-10-09T14:45:09.665Z,45.91
2022-10-09T14:47:36.131Z,46.33
2022-10-09T14:50:02.577Z,47.22
2022-10-09T14:52:29.020Z,48.60
2022-10-09T14:54:55.435Z,49.11
2022-10-09T14:57:21.989Z,50.23
2022-10-09T14:59:48.406Z,50.30
2022-10-09T15:02:15.713Z,50.13
2022-10-09T15:04:42.337Z,49.64
2022-10-09T15:07:09.037Z,49.82
2022-10-09T15:09:35.421Z,51.34
2022-10-09T15:12:01.807Z,51.56
2022-10-09T15:14:28.237Z,51.55
2022-10-09T15:16:54.753Z,50.84
2022-10-09T15:19:21.203Z,49.47
2022-10-09T15:21:47.623Z,49.15
2022-10-09T15:24:14.063Z,49.04
2022-10-09T15:26:41.886Z,48.37
2022-10-09T15:29:09.224Z,48.41
2022-10-09T15:31:40.844Z,47.80
2022-10-09T15:34:10.043Z,47.57
2022-10-09T15:36:39.764Z,47.76
2022-10-09T15:39:08.714Z,47.96
2022-10-09T15:41:38.213Z,47.90
2022-10-09T15:44:07.916Z,48.04
2022-10-09T15:46:34.757Z,48.67
2022-10-09T15:49:01.225Z,49.12
2022-10-09T15:51:29.226Z,50.75
2022-10-09T15:53:56.139Z,51.45
2022-10-09T15:56:24.625Z,52.38
2022-10-09T15:58:52.315Z,53.28
2022-10-09T16:01:19.744Z,54.23
2022-10-09T16:03:46.892Z,54.31
2022-10-09T16:06:16.157Z,54.52
2022-10-09T16:08:43.651Z,55.34
2022-10-09T16:11:13.458Z,55.47
2022-10-09T16:13:42.649Z,56.30
2022-10-09T16:16:12.591Z,57.01
2022-10-09T16:18:38.999Z,57.26
2022-10-09T16:21:11.576Z,57.54
2022-10-09T16:23:38.099Z,58.25
2022-10-09T16:26:04.703Z,58.20
2022-10-09T16:28:32.417Z,58.64
2022-10-09T16:30:59.274Z,58.86
2022-10-09T16:33:26.014Z,59.34
2022-10-09T16:35:52.745Z,59.12
2022-10-09T16:38:19.438Z,59.22
2022-10-09T16:41:03.259Z,59.66
2022-10-09T16:43:33.058Z,59.92
2022-10-09T16:46:09.649Z,60.29
2022-10-09T16:48:36.141Z,60.71
2022-10-09T16:51:06.618Z,61.14
2022-10-09T16:53:34.083Z,61.53
2022-10-09T16:56:07.615Z,62.05
2022-10-09T16:58:34.274Z,61.95
2022-10-09T17:01:02.501Z,62.16
2022-10-09T17:03:31.751Z,62.06
2022-10-09T17:05:58.707Z,62.54
2022-10-09T17:08:25.419Z,62.52
2022-10-09T17:10:51.847Z,62.96
2022-10-09T17:13:18.433Z,63.07
2022-10-09T17:15:44.939Z,63.27
2022-10-09T17:18:11.321Z,63.20
2022-10-09T17:20:38.689Z,63.75
2022-10-09T17:23:05.832Z,63.42
2022-10-09T17:25:33.216Z,63.56
2022-10-09T17:28:00.721Z,63.66
2022-10-09T17:30:29.786Z,63.71
2022-10-09T17:32:56.265Z,63.92
2022-10-09T17:35:22.680Z,64.02
2022-10-09T17:37:49.152Z,64.18
2022-10-09T17:40:15.702Z,64.18
2022-10-09T17:42:42.099Z,64.14
2022-10-09T17:45:09.082Z,64.22
2022-10-09T17:47:35.643Z,64.43
2022-10-09T17:50:02.555Z,64.48
2022-10-09T17:52:29.104Z,64.58
2022-10-09T17:54:56.599Z,64.77
2022-10-09T17:57:23.103Z,64.54
2022-10-09T17:59:49.612Z,64.81
2022-10-09T18:02:16.147Z,64.91
2022-10-09T18:04:42.579Z,65.04
2022-10-09T18:07:09.087Z,64.97
2022-10-09T18:09:35.663Z,65.12
2022-10-09T18:12:02.131Z,64.95
2022-10-09T18:14:28.635Z,65.20
2022-10-09T18:16:55.073Z,65.53
2022-10-09T18:19:21.714Z,65.18
2022-10-09T18:21:49.560Z,65.42
2022-10-09T18:24:16.665Z,65.29
2022-10-09T18:26:43.376Z,65.47
2022-10-09T18:29:10.100Z,65.26
2022-10-09T18:31:37.702Z,65.54
2022-10-09T18:34:04.175Z,65.66
2022-10-09T18:36:31.717Z,65.59
2022-10-09T18:39:08.779Z,65.88
2022-10-09T18:41:36.850Z,65.72
2022-10-09T18:44:04.600Z,65.68
2022-10-09T18:46:37.835Z,65.97
2022-10-09T18:49:09.302Z,66.16
2022-10-09T18:51:37.756Z,66.31
2022-10-09T18:54:06.397Z,66.45
2022-10-09T18:56:34.217Z,66.37
2022-10-09T18:59:08.928Z,66.29
2022-10-09T19:01:35.424Z,66.56
2022-10-09T19:04:01.951Z,66.59
2022-10-09T19:06:28.365Z,66.58
2022-10-09T19:09:00.537Z,66.92
2022-10-09T19:11:32.234Z,66.88
2022-10-09T19:14:00.469Z,67.18
2022-10-09T19:16:28.526Z,67.03
2022-10-09T19:18:55.239Z,67.03
2022-10-09T19:21:21.685Z,67.07
2022-10-09T19:23:52.753Z,67.09
2022-10-09T19:26:20.915Z,67.14
2022-10-09T19:28:47.477Z,67.17
2022-10-09T19:31:14.682Z,67.17
2022-10-09T19:33:41.873Z,67.44
2022-10-09T19:36:11.857Z,67.37
2022-10-09T19:38:38.594Z,67.46
2022-10-09T19:41:06.948Z,67.63
2022-10-09T19:43:33.490Z,67.66
2022-10-09T19:46:02.122Z,67.96
2022-10-09T19:48:28.556Z,67.76
2022-10-09T19:50:54.967Z,67.82
2022-10-09T19:53:21.488Z,67.98
2022-10-09T19:55:47.965Z,67.95
2022-10-09T19:58:16.180Z,68.28
2022-10-09T20:00:43.547Z,68.28
2022-10-09T20:03:10.117Z,68.29
2022-10-09T20:05:36.594Z,68.65
2022-10-09T20:08:03.036Z,68.74
2022-10-09T20:10:29.412Z,68.95
2022-10-09T20:12:55.842Z,68.92
2022-10-09T20:15:22.482Z,69.14
2022-10-09T20:17:49.480Z,68.97
2022-10-09T20:20:16.072Z,69.16
2022-10-09T20:22:42.551Z,69.16
2022-10-09T20:25:09.222Z,69.17
2022-10-09T20:27:35.649Z,69.31
2022-10-09T20:30:02.157Z,69.27
2022-10-09T20:32:29.226Z,69.02
2022-10-09T20:34:57.902Z,69.57
2022-10-09T20:37:24.405Z,69.47
2022-10-09T20:39:50.801Z,69.56
2022-10-09T20:42:17.217Z,69.38
2022-10-09T20:44:43.628Z,69.82
2022-10-09T20:47:10.339Z,70.07
2022-10-09T20:49:36.735Z,69.79
2022-10-09T20:52:03.716Z,69.85
2022-10-09T20:54:33.068Z,69.95
2022-10-09T20:56:59.552Z,69.99
2022-10-09T20:59:25.970Z,70.32
2022-10-09T21:01:52.342Z,70.31
2022-10-09T21:04:18.770Z,70.42
2022-10-09T21:06:45.240Z,71.42
2022-10-09T21:09:11.718Z,71.01
2022-10-09T21:11:39.835Z,70.55
2022-10-09T21:14:06.247Z,70.42
2022-10-09T21:16:32.912Z,70.37
2022-10-09T21:19:01.938Z,70.53
2022-10-09T21:21:29.562Z,70.69
2022-10-09T21:23:57.888Z,70.88
2022-10-09T21:26:25.124Z,71.25
2022-10-09T21:28:56.744Z,71.43
2022-10-09T21:31:28.349Z,71.69
2022-10-09T21:33:55.466Z,71.90
2022-10-09T21:36:27.762Z,71.77
2022-10-09T21:38:54.179Z,71.94
2022-10-09T21:41:20.577Z,72.04
2022-10-09T21:43:47.009Z,71.83
2022-10-09T21:46:13.445Z,72.32
2022-10-09T21:48:39.855Z,72.21
2022-10-09T21:51:06.313Z,72.33
2022-10-09T21:53:32.878Z,72.33
2022-10-09T21:56:03.614Z,72.30
2022-10-09T21:58:30.023Z,72.43
2022-10-09T22:00:59.039Z,72.69
2022-10-09T22:03:27.279Z,72.33
2022-10-09T22:05:53.853Z,72.29
2022-10-09T22:08:21.022Z,72.51
2022-10-09T22:10:47.645Z,72.73
2022-10-09T22:13:14.039Z,72.46
2022-10-09T22:15:41.737Z,72.52
2022-10-09T22:18:08.294Z,72.46
2022-10-09T22:20:43.690Z,72.45
2022-10-09T22:23:11.047Z,72.28
2022-10-09T22:25:37.974Z,72.50
2022-10-09T22:28:05.660Z,72.42
2022-10-09T22:30:33.197Z,72.46
2022-10-09T22:32:59.694Z,72.65
2022-10-09T22:35:26.535Z,72.68
2022-10-09T22:37:53.064Z,72.60
2022-10-09T22:40:20.101Z,72.54
2022-10-09T22:42:46.721Z,72.66
2022-10-09T22:45:13.179Z,72.49
2022-10-09T22:47:39.593Z,72.53
2022-10-09T22:50:06.380Z,72.65
2022-10-09T22:52:32.755Z,72.66
2022-10-09T22:55:00.505Z,72.74
2022-10-09T22:57:26.925Z,72.82
2022-10-09T22:59:53.314Z,73.03
2022-10-09T23:02:19.726Z,72.81
2022-10-09T23:04:46.115Z,72.80
2022-10-09T23:07:12.543Z,72.95
2022-10-09T23:09:39.482Z,72.76
2022-10-09T23:12:05.934Z,72.91
2022-10-09T23:14:32.534Z,72.79
2022-10-09T23:16:58.946Z,72.62
2022-10-09T23:19:25.417Z,72.61
2022-10-09T23:21:51.880Z,72.70
2022-10-09T23:24:18.348Z,72.44
2022-10-09T23:26:46.289Z,72.58
2022-10-09T23:29:16.473Z,72.76
2022-10-09T23:31:43.117Z,73.00
2022-10-09T23:34:10.017Z,73.09
2022-10-09T23:36:36.542Z,73.22
2022-10-09T23:39:04.771Z,73.18
2022-10-09T23:41:31.264Z,73.10
2022-10-09T23:43:58.121Z,73.31
2022-10-09T23:46:29.947Z,73.17
2022-10-09T23:48:56.814Z,72.96
2022-10-09T23:51:25.275Z,72.88
2022-10-09T23:53:52.523Z,73.07
2022-10-09T23:56:25.407Z,73.43
2022-10-09T23:58:53.166Z,73.67
